Georg Jacob — A8XG5 — position and weather

sailwx.info

Track history (hours):
 
Tides and Currents Weather Stations Pressure Air Temp Water Temp Dewpoint Dewpoint Depression Visibility Wind Speed Wind Dir Waves Ship Positions

Georg Jacob

Last reported at 2014-Aug-09 12:04 UTC. Time now 2014-Sep-01 07:48 UTC.
Position N 50°13' W 001°40'.
Warning: this ship's position is 22 days out of date.

Length 229 m; draft 13.7 m.

Type: Tanker. MMSI: 636092136.

Date/timePositionNaut miles runAvg speedWind from/ knotsBaromVisibWave heightAir tempDewpointWater temp
2014-Aug-09 12:04N 50°13' W 001°40'815.3
2014-Aug-09 11:32N 50°14' W 001°27'1414.4
2014-Aug-09 10:33N 50°19' W 001°06'1312.6
2014-Aug-09 09:33N 50°22' W 000°47'1410.9
2014-Aug-09 08:13N 50°26' W 000°25'17 9.9
2014-Aug-09 06:30N 50°30' E 000°01'10 9.8
2014-Aug-09 05:28N 50°33' E 000°16'1010.9
2014-Aug-09 04:33N 50°36' E 000°31'1211.9
2014-Aug-09 03:33N 50°42' E 000°46'1212.3
2014-Aug-09 02:33N 50°50' E 001°01'1411.6
2014-Aug-09 01:22N 50°59' E 001°18'810.3
2014-Aug-09 00:34N 51°04' E 001°28'8 8.3
2014-Aug-08 23:33N 51°10' E 001°39'8 7.9
2014-Aug-08 22:33N 51°15' E 001°47'9 9.0
2014-Aug-08 21:33N 51°24' E 001°53'1111.4
2014-Aug-08 20:34N 51°33' E 002°03'1414.1
2014-Aug-08 19:34N 51°44' E 002°18'1514.8
2014-Aug-08 18:32N 51°54' E 002°35'4314.0
2014-Aug-08 15:27N 52°25' E 003°24'1412.6
2014-Aug-08 14:20N 52°30' E 003°46'1012.4
2014-Aug-08 13:33N 52°31' E 004°02'1111.3
2014-Aug-08 12:33N 52°30' E 004°20'8 8.3
2014-Aug-08 11:33N 52°28' E 004°33'2 2.0
2014-Aug-08 10:33N 52°28' E 004°37'3 2.6
2014-Aug-08 09:34N 52°27' E 004°41'4 4.2
2014-Aug-08 08:33N 52°25' E 004°46'0 0.3
2014-Aug-08 07:28N 52°25' E 004°47'0 0.0
2014-Aug-08 06:25N 52°25' E 004°47'0 0.0
2014-Aug-08 05:25N 52°25' E 004°47'0 0.0
2014-Aug-08 04:28N 52°25' E 004°47'0 0.0
2014-Aug-08 03:31N 52°25' E 004°47'0 0.0
2014-Aug-08 02:28N 52°25' E 004°47'0 0.0
2014-Aug-08 01:31N 52°25' E 004°47'0 0.0
2014-Aug-08 00:31N 52°25' E 004°47'0 0.0
2014-Aug-07 23:28N 52°25' E 004°47'0 0.0
2014-Aug-07 22:31N 52°25' E 004°47'0 0.0
2014-Aug-07 21:28N 52°25' E 004°47'0 0.0
2014-Aug-07 20:31N 52°25' E 004°47'0 0.0
2014-Aug-07 19:31N 52°25' E 004°47'0 0.0
2014-Aug-07 18:31N 52°25' E 004°47'0 0.0
2014-Aug-07 17:31N 52°25' E 004°47'0 0.0
2014-Aug-07 16:31N 52°25' E 004°47'0 0.0
2014-Aug-07 15:28N 52°25' E 004°47'0 0.0
2014-Aug-07 14:25N 52°25' E 004°47'0 0.0
2014-Aug-07 13:31N 52°25' E 004°47'0 0.0
2014-Aug-07 12:28N 52°25' E 004°47'0 0.0
2014-Aug-07 11:31N 52°25' E 004°47'0 0.0
2014-Aug-07 10:31N 52°25' E 004°47'0 0.0
2014-Aug-07 09:31N 52°25' E 004°47'0 0.0
2014-Aug-07 08:28N 52°25' E 004°47'0 0.0
2014-Aug-07 07:31N 52°25' E 004°47'0 0.0
2014-Aug-07 06:31N 52°25' E 004°47'0 0.0
2014-Aug-07 05:28N 52°25' E 004°47'0 0.0
2014-Aug-07 04:31N 52°25' E 004°47'0 0.0
2014-Aug-07 03:31N 52°25' E 004°47'0 0.0
2014-Aug-07 02:31N 52°25' E 004°47'0 0.0
2014-Aug-07 01:31N 52°25' E 004°47'0 0.0
2014-Aug-07 00:31N 52°25' E 004°47'0 0.0
2014-Aug-06 23:31N 52°25' E 004°47'0 0.0
2014-Aug-06 22:31N 52°25' E 004°47'0 0.0
2014-Aug-06 21:31N 52°25' E 004°47'0 0.0
2014-Aug-06 20:31N 52°25' E 004°47'0 0.0
2014-Aug-06 19:31N 52°25' E 004°47'0 0.0
2014-Aug-06 18:31N 52°25' E 004°47'0 0.0
2014-Aug-06 17:31N 52°25' E 004°47'0 0.0
2014-Aug-06 16:31N 52°25' E 004°47'0 0.0
2014-Aug-06 15:28N 52°25' E 004°47'0 0.0
2014-Aug-06 14:28N 52°25' E 004°47'0 0.0
2014-Aug-06 13:25N 52°25' E 004°47'0 0.0
2014-Aug-06 12:31N 52°25' E 004°47'0 0.0
2014-Aug-06 11:28N 52°25' E 004°47'0 0.0
2014-Aug-06 10:31N 52°25' E 004°47'0 0.0
2014-Aug-06 09:31N 52°25' E 004°47'0 0.0
2014-Aug-06 08:28N 52°25' E 004°47'0 0.0
2014-Aug-06 07:31N 52°25' E 004°47'0 0.0
2014-Aug-06 06:31N 52°25' E 004°47'0 0.0
2014-Aug-06 05:28N 52°25' E 004°47'0 0.0
2014-Aug-06 04:31N 52°25' E 004°47'0 0.0
2014-Aug-06 03:31N 52°25' E 004°47'0 0.0
2014-Aug-06 02:31N 52°25' E 004°47'0 0.0
2014-Aug-06 01:31N 52°25' E 004°47'1 1.1
2014-Aug-06 00:34N 52°26' E 004°46'6 6.4
2014-Aug-05 23:34N 52°28' E 004°36'3 2.6
2014-Aug-05 22:34N 52°28' E 004°32'9 8.6
2014-Aug-05 21:33N 52°28' E 004°18'8 8.0
2014-Aug-05 20:33N 52°27' E 004°05'1 0.8
2014-Aug-05 19:33N 52°27' E 004°04'0 0.2
2014-Aug-05 18:33N 52°27' E 004°04'0 0.1
2014-Aug-05 17:30N 52°27' E 004°04'0 0.0
2014-Aug-05 16:33N 52°27' E 004°04'0 0.0
2014-Aug-05 15:33N 52°27' E 004°04'0 0.0
2014-Aug-05 14:33N 52°27' E 004°04'0 0.2
2014-Aug-05 13:33N 52°27' E 004°04'0 0.1
2014-Aug-05 12:33N 52°27' E 004°04'0 0.0
2014-Aug-05 11:30N 52°27' E 004°04'0 0.0
2014-Aug-05 10:33N 52°27' E 004°04'0 0.0
2014-Aug-05 09:33N 52°27' E 004°04'0 0.0
2014-Aug-05 08:33N 52°27' E 004°04'0 0.0
2014-Aug-05 07:33N 52°27' E 004°04'0 0.0
2014-Aug-05 06:33N 52°27' E 004°04'0 0.2
2014-Aug-05 05:33N 52°27' E 004°04'0 0.0
2014-Aug-05 04:30N 52°27' E 004°04'0 0.0
2014-Aug-05 03:33N 52°27' E 004°04'0 0.0
2014-Aug-05 02:33N 52°27' E 004°04'0 0.0
2014-Aug-05 01:33N 52°27' E 004°04'0 0.1
2014-Aug-05 00:30N 52°27' E 004°04'0 0.2
2014-Aug-04 23:33N 52°27' E 004°04'0 0.1
2014-Aug-04 22:33N 52°27' E 004°04'0 0.0
2014-Aug-04 21:33N 52°27' E 004°04'0 0.0
2014-Aug-04 20:33N 52°27' E 004°04'0 0.0
2014-Aug-04 04:18N 52°27' E 004°04'0 0.1
2014-Aug-04 03:33N 52°27' E 004°04'0 0.1
2014-Aug-04 02:30N 52°27' E 004°04'0 0.0
2014-Aug-04 01:15N 52°27' E 004°04'0 0.1
2014-Aug-04 00:06N 52°27' E 004°04'0 0.2
2014-Aug-03 23:27N 52°27' E 004°04'0 0.1
2014-Aug-03 22:27N 52°27' E 004°04'0 0.0
2014-Aug-03 21:30N 52°27' E 004°04'0 0.0
2014-Aug-03 19:21N 52°27' E 004°04'0 0.0
2014-Aug-03 18:24N 52°27' E 004°04'0 0.0
2014-Aug-03 17:33N 52°27' E 004°04'0 0.0
2014-Aug-03 11:30N 52°27' E 004°04'0 0.1
2014-Aug-03 10:30N 52°27' E 004°04'0 0.1
2014-Aug-03 09:33N 52°27' E 004°04'0 0.0
2014-Aug-03 08:30N 52°27' E 004°04'0 0.0
2014-Aug-03 07:30N 52°27' E 004°04'0 0.0
2014-Aug-03 06:33N 52°27' E 004°04'0 0.0
2014-Aug-03 05:33N 52°27' E 004°04'0 0.0
2014-Aug-03 04:33N 52°27' E 004°04'0 0.1
2014-Aug-03 03:33N 52°27' E 004°04'2 2.0
2014-Aug-03 02:33N 52°26' E 004°01'1010.2
2014-Aug-03 01:33N 52°26' E 003°44'1110.3
2014-Aug-03 00:29N 52°21' E 003°28'1010.8
2014-Aug-02 23:32N 52°14' E 003°17'2511.5
2014-Aug-02 21:21N 51°55' E 002°49'1112.3
2014-Aug-02 20:29N 51°47' E 002°38'1212.5
2014-Aug-02 19:33N 51°38' E 002°26'1312.9
2014-Aug-02 18:33N 51°28' E 002°14'8 7.5
2014-Aug-02 17:31N 51°21' E 002°22'9 9.3
2014-Aug-02 16:33N 51°23' E 002°35'8 8.1
2014-Aug-02 15:33N 51°22' E 002°48'1211.5
2014-Aug-02 14:33N 51°24' E 003°07'1212.4
2014-Aug-02 13:33N 51°25' E 003°26'1010.5
2014-Aug-02 12:33N 51°25' E 003°43'1 0.7
2014-Aug-02 11:31N 51°24' E 003°44'0 0.0
2014-Aug-02 10:31N 51°24' E 003°44'0 0.0
2014-Aug-02 09:31N 51°24' E 003°44'0 0.0
2014-Aug-02 08:31N 51°24' E 003°44'0 0.0
2014-Aug-02 07:31N 51°24' E 003°44'0 0.1
2014-Aug-02 06:31N 51°24' E 003°44'0 0.3
2014-Aug-02 05:31N 51°24' E 003°44'0 0.0
2014-Aug-02 04:31N 51°24' E 003°44'0 0.0
2014-Aug-02 03:31N 51°24' E 003°44'0 0.0
2014-Aug-02 02:31N 51°24' E 003°44'1 1.5
2014-Aug-02 01:33N 51°23' E 003°44'9 9.0
2014-Aug-02 00:33N 51°25' E 003°58'8 7.7
2014-Aug-01 23:33N 51°23' E 004°10'5 5.3
2014-Aug-01 22:34N 51°21' E 004°17'0 0.0
2014-Aug-01 21:34N 51°21' E 004°17'2 2.1
2014-Aug-01 20:34N 51°19' E 004°19'2 1.7
2014-Aug-01 19:33N 51°17' E 004°20'0 0.0
2014-Aug-01 18:33N 51°17' E 004°20'0 0.0
2014-Aug-01 17:33N 51°17' E 004°20'0 0.0
2014-Aug-01 16:33N 51°17' E 004°20'0 0.0
2014-Aug-01 15:33N 51°17' E 004°20'0 0.0
2014-Aug-01 14:33N 51°17' E 004°20'0 0.0
2014-Aug-01 13:33N 51°17' E 004°20'0 0.0
2014-Aug-01 12:27N 51°17' E 004°20'0 0.0
2014-Aug-01 11:30N 51°17' E 004°20'0 0.0
2014-Aug-01 10:30N 51°17' E 004°20'0 0.0
2014-Aug-01 09:33N 51°17' E 004°20'0 0.0
2014-Aug-01 08:30N 51°17' E 004°20'0 0.0
2014-Aug-01 07:33N 51°17' E 004°20'0 0.0
2014-Aug-01 06:27N 51°17' E 004°20'0 0.0
2014-Aug-01 05:33N 51°17' E 004°20'0 0.0
2014-Aug-01 04:33N 51°17' E 004°20'0 0.0
2014-Aug-01 03:33N 51°17' E 004°20'0 0.0
2014-Aug-01 02:33N 51°17' E 004°20'0 0.0
2014-Aug-01 01:33N 51°17' E 004°20'0 0.0
2014-Aug-01 00:30N 51°17' E 004°20'0 0.0
2014-Jul-31 23:33N 51°17' E 004°20'0 0.0
2014-Jul-31 22:33N 51°17' E 004°20'0 0.0
2014-Jul-31 21:33N 51°17' E 004°20'0 0.0
2014-Jul-31 20:30N 51°17' E 004°20'0 0.0
2014-Jul-31 19:27N 51°17' E 004°20'0 0.0
2014-Jul-31 18:30N 51°17' E 004°20'0 0.0
2014-Jul-31 17:33N 51°17' E 004°20'0 0.0
2014-Jul-31 16:33N 51°17' E 004°20'0 0.0
2014-Jul-31 15:33N 51°17' E 004°20'0 0.0
2014-Jul-31 14:33N 51°17' E 004°20'0 0.0
2014-Jul-31 13:33N 51°17' E 004°20'0 0.0
2014-Jul-31 12:33N 51°17' E 004°20'0 0.0
2014-Jul-31 11:33N 51°17' E 004°20'0 0.0
2014-Jul-31 10:33N 51°17' E 004°20'0 0.0
2014-Jul-31 09:30N 51°17' E 004°20'0 0.0
2014-Jul-31 08:30N 51°17' E 004°20'0 0.0
2014-Jul-31 07:33N 51°17' E 004°20'0 0.0
2014-Jul-31 06:33N 51°17' E 004°20'0 0.0
2014-Jul-31 05:27N 51°17' E 004°20'0 0.0
2014-Jul-31 04:30N 51°17' E 004°20'0 0.0
2014-Jul-31 03:30N 51°17' E 004°20'0 0.0
2014-Jul-31 02:30N 51°17' E 004°20'0 0.0
2014-Jul-31 01:33N 51°17' E 004°20'0 0.0
2014-Jul-31 00:33N 51°17' E 004°20'0 0.0
2014-Jul-30 23:33N 51°17' E 004°20'0 0.0
2014-Jul-30 22:33N 51°17' E 004°20'0 0.5
2014-Jul-30 21:33N 51°18' E 004°20'3 2.9
2014-Jul-30 20:34N 51°20' E 004°18'1 0.7
2014-Jul-30 19:34N 51°21' E 004°17'0 0.0
2014-Jul-30 18:34N 51°21' E 004°17'1 0.9
2014-Jul-30 17:34N 51°21' E 004°16'4 3.8
2014-Jul-30 16:33N 51°24' E 004°12'7 6.9
2014-Jul-30 15:33N 51°26' E 004°01'1010.2
2014-Jul-30 14:33N 51°21' E 003°46'9 9.3
2014-Jul-30 13:33N 51°25' E 003°33'1212.0
2014-Jul-30 12:33N 51°24' E 003°13'  
Track history (hours):
 
Tides and Currents Weather Stations Pressure Air Temp Water Temp Dewpoint Dewpoint Depression Visibility Wind Speed Wind Dir Waves Ship Positions

Georg Jacob

Last reported at 2014-Aug-09 12:04 UTC. Time now 2014-Sep-01 07:48 UTC.
Position N 50°13' W 001°40'.
Warning: this ship's position is 22 days out of date.

Length 229 m; draft 13.7 m.

Type: Tanker. MMSI: 636092136.

Date/timePositionNaut miles runAvg speedWind from/ knotsBaromVisibWave heightAir tempDewpointWater temp
2014-Aug-09 12:04N 50°13' W 001°40'815.3
2014-Aug-09 11:32N 50°14' W 001°27'1414.4
2014-Aug-09 10:33N 50°19' W 001°06'1312.6
2014-Aug-09 09:33N 50°22' W 000°47'1410.9
2014-Aug-09 08:13N 50°26' W 000°25'17 9.9
2014-Aug-09 06:30N 50°30' E 000°01'10 9.8
2014-Aug-09 05:28N 50°33' E 000°16'1010.9
2014-Aug-09 04:33N 50°36' E 000°31'1211.9
2014-Aug-09 03:33N 50°42' E 000°46'1212.3
2014-Aug-09 02:33N 50°50' E 001°01'1411.6
2014-Aug-09 01:22N 50°59' E 001°18'810.3
2014-Aug-09 00:34N 51°04' E 001°28'8 8.3
2014-Aug-08 23:33N 51°10' E 001°39'8 7.9
2014-Aug-08 22:33N 51°15' E 001°47'9 9.0
2014-Aug-08 21:33N 51°24' E 001°53'1111.4
2014-Aug-08 20:34N 51°33' E 002°03'1414.1
2014-Aug-08 19:34N 51°44' E 002°18'1514.8
2014-Aug-08 18:32N 51°54' E 002°35'4314.0
2014-Aug-08 15:27N 52°25' E 003°24'1412.6
2014-Aug-08 14:20N 52°30' E 003°46'1012.4
2014-Aug-08 13:33N 52°31' E 004°02'1111.3
2014-Aug-08 12:33N 52°30' E 004°20'8 8.3
2014-Aug-08 11:33N 52°28' E 004°33'2 2.0
2014-Aug-08 10:33N 52°28' E 004°37'3 2.6
2014-Aug-08 09:34N 52°27' E 004°41'4 4.2
2014-Aug-08 08:33N 52°25' E 004°46'0 0.3
2014-Aug-08 07:28N 52°25' E 004°47'0 0.0
2014-Aug-08 06:25N 52°25' E 004°47'0 0.0
2014-Aug-08 05:25N 52°25' E 004°47'0 0.0
2014-Aug-08 04:28N 52°25' E 004°47'0 0.0
2014-Aug-08 03:31N 52°25' E 004°47'0 0.0
2014-Aug-08 02:28N 52°25' E 004°47'0 0.0
2014-Aug-08 01:31N 52°25' E 004°47'0 0.0
2014-Aug-08 00:31N 52°25' E 004°47'0 0.0
2014-Aug-07 23:28N 52°25' E 004°47'0 0.0
2014-Aug-07 22:31N 52°25' E 004°47'0 0.0
2014-Aug-07 21:28N 52°25' E 004°47'0 0.0
2014-Aug-07 20:31N 52°25' E 004°47'0 0.0
2014-Aug-07 19:31N 52°25' E 004°47'0 0.0
2014-Aug-07 18:31N 52°25' E 004°47'0 0.0
2014-Aug-07 17:31N 52°25' E 004°47'0 0.0
2014-Aug-07 16:31N 52°25' E 004°47'0 0.0
2014-Aug-07 15:28N 52°25' E 004°47'0 0.0
2014-Aug-07 14:25N 52°25' E 004°47'0 0.0
2014-Aug-07 13:31N 52°25' E 004°47'0 0.0
2014-Aug-07 12:28N 52°25' E 004°47'0 0.0
2014-Aug-07 11:31N 52°25' E 004°47'0 0.0
2014-Aug-07 10:31N 52°25' E 004°47'0 0.0
2014-Aug-07 09:31N 52°25' E 004°47'0 0.0
2014-Aug-07 08:28N 52°25' E 004°47'0 0.0
2014-Aug-07 07:31N 52°25' E 004°47'0 0.0
2014-Aug-07 06:31N 52°25' E 004°47'0 0.0
2014-Aug-07 05:28N 52°25' E 004°47'0 0.0
2014-Aug-07 04:31N 52°25' E 004°47'0 0.0
2014-Aug-07 03:31N 52°25' E 004°47'0 0.0
2014-Aug-07 02:31N 52°25' E 004°47'0 0.0
2014-Aug-07 01:31N 52°25' E 004°47'0 0.0
2014-Aug-07 00:31N 52°25' E 004°47'0 0.0
2014-Aug-06 23:31N 52°25' E 004°47'0 0.0
2014-Aug-06 22:31N 52°25' E 004°47'0 0.0
2014-Aug-06 21:31N 52°25' E 004°47'0 0.0
2014-Aug-06 20:31N 52°25' E 004°47'0 0.0
2014-Aug-06 19:31N 52°25' E 004°47'0 0.0
2014-Aug-06 18:31N 52°25' E 004°47'0 0.0
2014-Aug-06 17:31N 52°25' E 004°47'0 0.0
2014-Aug-06 16:31N 52°25' E 004°47'0 0.0
2014-Aug-06 15:28N 52°25' E 004°47'0 0.0
2014-Aug-06 14:28N 52°25' E 004°47'0 0.0
2014-Aug-06 13:25N 52°25' E 004°47'0 0.0
2014-Aug-06 12:31N 52°25' E 004°47'0 0.0
2014-Aug-06 11:28N 52°25' E 004°47'0 0.0
2014-Aug-06 10:31N 52°25' E 004°47'0 0.0
2014-Aug-06 09:31N 52°25' E 004°47'0 0.0
2014-Aug-06 08:28N 52°25' E 004°47'0 0.0
2014-Aug-06 07:31N 52°25' E 004°47'0 0.0
2014-Aug-06 06:31N 52°25' E 004°47'0 0.0
2014-Aug-06 05:28N 52°25' E 004°47'0 0.0
2014-Aug-06 04:31N 52°25' E 004°47'0 0.0
2014-Aug-06 03:31N 52°25' E 004°47'0 0.0
2014-Aug-06 02:31N 52°25' E 004°47'0 0.0
2014-Aug-06 01:31N 52°25' E 004°47'1 1.1
2014-Aug-06 00:34N 52°26' E 004°46'6 6.4
2014-Aug-05 23:34N 52°28' E 004°36'3 2.6
2014-Aug-05 22:34N 52°28' E 004°32'9 8.6
2014-Aug-05 21:33N 52°28' E 004°18'8 8.0
2014-Aug-05 20:33N 52°27' E 004°05'1 0.8
2014-Aug-05 19:33N 52°27' E 004°04'0 0.2
2014-Aug-05 18:33N 52°27' E 004°04'0 0.1
2014-Aug-05 17:30N 52°27' E 004°04'0 0.0
2014-Aug-05 16:33N 52°27' E 004°04'0 0.0
2014-Aug-05 15:33N 52°27' E 004°04'0 0.0
2014-Aug-05 14:33N 52°27' E 004°04'0 0.2
2014-Aug-05 13:33N 52°27' E 004°04'0 0.1
2014-Aug-05 12:33N 52°27' E 004°04'0 0.0
2014-Aug-05 11:30N 52°27' E 004°04'0 0.0
2014-Aug-05 10:33N 52°27' E 004°04'0 0.0
2014-Aug-05 09:33N 52°27' E 004°04'0 0.0
2014-Aug-05 08:33N 52°27' E 004°04'0 0.0
2014-Aug-05 07:33N 52°27' E 004°04'0 0.0
2014-Aug-05 06:33N 52°27' E 004°04'0 0.2
2014-Aug-05 05:33N 52°27' E 004°04'0 0.0
2014-Aug-05 04:30N 52°27' E 004°04'0 0.0
2014-Aug-05 03:33N 52°27' E 004°04'0 0.0
2014-Aug-05 02:33N 52°27' E 004°04'0 0.0
2014-Aug-05 01:33N 52°27' E 004°04'0 0.1
2014-Aug-05 00:30N 52°27' E 004°04'0 0.2
2014-Aug-04 23:33N 52°27' E 004°04'0 0.1
2014-Aug-04 22:33N 52°27' E 004°04'0 0.0
2014-Aug-04 21:33N 52°27' E 004°04'0 0.0
2014-Aug-04 20:33N 52°27' E 004°04'0 0.0
2014-Aug-04 04:18N 52°27' E 004°04'0 0.1
2014-Aug-04 03:33N 52°27' E 004°04'0 0.1
2014-Aug-04 02:30N 52°27' E 004°04'0 0.0
2014-Aug-04 01:15N 52°27' E 004°04'0 0.1
2014-Aug-04 00:06N 52°27' E 004°04'0 0.2
2014-Aug-03 23:27N 52°27' E 004°04'0 0.1
2014-Aug-03 22:27N 52°27' E 004°04'0 0.0
2014-Aug-03 21:30N 52°27' E 004°04'0 0.0
2014-Aug-03 19:21N 52°27' E 004°04'0 0.0
2014-Aug-03 18:24N 52°27' E 004°04'0 0.0
2014-Aug-03 17:33N 52°27' E 004°04'0 0.0
2014-Aug-03 11:30N 52°27' E 004°04'0 0.1
2014-Aug-03 10:30N 52°27' E 004°04'0 0.1
2014-Aug-03 09:33N 52°27' E 004°04'0 0.0
2014-Aug-03 08:30N 52°27' E 004°04'0 0.0
2014-Aug-03 07:30N 52°27' E 004°04'0 0.0
2014-Aug-03 06:33N 52°27' E 004°04'0 0.0
2014-Aug-03 05:33N 52°27' E 004°04'0 0.0
2014-Aug-03 04:33N 52°27' E 004°04'0 0.1
2014-Aug-03 03:33N 52°27' E 004°04'2 2.0
2014-Aug-03 02:33N 52°26' E 004°01'1010.2
2014-Aug-03 01:33N 52°26' E 003°44'1110.3
2014-Aug-03 00:29N 52°21' E 003°28'1010.8
2014-Aug-02 23:32N 52°14' E 003°17'2511.5
2014-Aug-02 21:21N 51°55' E 002°49'1112.3
2014-Aug-02 20:29N 51°47' E 002°38'1212.5
2014-Aug-02 19:33N 51°38' E 002°26'1312.9
2014-Aug-02 18:33N 51°28' E 002°14'8 7.5
2014-Aug-02 17:31N 51°21' E 002°22'9 9.3
2014-Aug-02 16:33N 51°23' E 002°35'8 8.1
2014-Aug-02 15:33N 51°22' E 002°48'1211.5
2014-Aug-02 14:33N 51°24' E 003°07'1212.4
2014-Aug-02 13:33N 51°25' E 003°26'1010.5
2014-Aug-02 12:33N 51°25' E 003°43'1 0.7
2014-Aug-02 11:31N 51°24' E 003°44'0 0.0
2014-Aug-02 10:31N 51°24' E 003°44'0 0.0
2014-Aug-02 09:31N 51°24' E 003°44'0 0.0
2014-Aug-02 08:31N 51°24' E 003°44'0 0.0
2014-Aug-02 07:31N 51°24' E 003°44'0 0.1
2014-Aug-02 06:31N 51°24' E 003°44'0 0.3
2014-Aug-02 05:31N 51°24' E 003°44'0 0.0
2014-Aug-02 04:31N 51°24' E 003°44'0 0.0
2014-Aug-02 03:31N 51°24' E 003°44'0 0.0
2014-Aug-02 02:31N 51°24' E 003°44'1 1.5
2014-Aug-02 01:33N 51°23' E 003°44'9 9.0
2014-Aug-02 00:33N 51°25' E 003°58'8 7.7
2014-Aug-01 23:33N 51°23' E 004°10'5 5.3
2014-Aug-01 22:34N 51°21' E 004°17'0 0.0
2014-Aug-01 21:34N 51°21' E 004°17'2 2.1
2014-Aug-01 20:34N 51°19' E 004°19'2 1.7
2014-Aug-01 19:33N 51°17' E 004°20'0 0.0
2014-Aug-01 18:33N 51°17' E 004°20'0 0.0
2014-Aug-01 17:33N 51°17' E 004°20'0 0.0
2014-Aug-01 16:33N 51°17' E 004°20'0 0.0
2014-Aug-01 15:33N 51°17' E 004°20'0 0.0
2014-Aug-01 14:33N 51°17' E 004°20'0 0.0
2014-Aug-01 13:33N 51°17' E 004°20'0 0.0
2014-Aug-01 12:27N 51°17' E 004°20'0 0.0
2014-Aug-01 11:30N 51°17' E 004°20'0 0.0
2014-Aug-01 10:30N 51°17' E 004°20'0 0.0
2014-Aug-01 09:33N 51°17' E 004°20'0 0.0
2014-Aug-01 08:30N 51°17' E 004°20'0 0.0
2014-Aug-01 07:33N 51°17' E 004°20'0 0.0
2014-Aug-01 06:27N 51°17' E 004°20'0 0.0
2014-Aug-01 05:33N 51°17' E 004°20'0 0.0
2014-Aug-01 04:33N 51°17' E 004°20'0 0.0
2014-Aug-01 03:33N 51°17' E 004°20'0 0.0
2014-Aug-01 02:33N 51°17' E 004°20'0 0.0
2014-Aug-01 01:33N 51°17' E 004°20'0 0.0
2014-Aug-01 00:30N 51°17' E 004°20'0 0.0
2014-Jul-31 23:33N 51°17' E 004°20'0 0.0
2014-Jul-31 22:33N 51°17' E 004°20'0 0.0
2014-Jul-31 21:33N 51°17' E 004°20'0 0.0
2014-Jul-31 20:30N 51°17' E 004°20'0 0.0
2014-Jul-31 19:27N 51°17' E 004°20'0 0.0
2014-Jul-31 18:30N 51°17' E 004°20'0 0.0
2014-Jul-31 17:33N 51°17' E 004°20'0 0.0
2014-Jul-31 16:33N 51°17' E 004°20'0 0.0
2014-Jul-31 15:33N 51°17' E 004°20'0 0.0
2014-Jul-31 14:33N 51°17' E 004°20'0 0.0
2014-Jul-31 13:33N 51°17' E 004°20'0 0.0
2014-Jul-31 12:33N 51°17' E 004°20'0 0.0
2014-Jul-31 11:33N 51°17' E 004°20'0 0.0
2014-Jul-31 10:33N 51°17' E 004°20'0 0.0
2014-Jul-31 09:30N 51°17' E 004°20'0 0.0
2014-Jul-31 08:30N 51°17' E 004°20'0 0.0
2014-Jul-31 07:33N 51°17' E 004°20'0 0.0
2014-Jul-31 06:33N 51°17' E 004°20'0 0.0
2014-Jul-31 05:27N 51°17' E 004°20'0 0.0
2014-Jul-31 04:30N 51°17' E 004°20'0 0.0
2014-Jul-31 03:30N 51°17' E 004°20'0 0.0
2014-Jul-31 02:30N 51°17' E 004°20'0 0.0
2014-Jul-31 01:33N 51°17' E 004°20'0 0.0
2014-Jul-31 00:33N 51°17' E 004°20'0 0.0
2014-Jul-30 23:33N 51°17' E 004°20'0 0.0
2014-Jul-30 22:33N 51°17' E 004°20'0 0.5
2014-Jul-30 21:33N 51°18' E 004°20'3 2.9
2014-Jul-30 20:34N 51°20' E 004°18'1 0.7
2014-Jul-30 19:34N 51°21' E 004°17'0 0.0
2014-Jul-30 18:34N 51°21' E 004°17'1 0.9
2014-Jul-30 17:34N 51°21' E 004°16'4 3.8
2014-Jul-30 16:33N 51°24' E 004°12'7 6.9
2014-Jul-30 15:33N 51°26' E 004°01'1010.2
2014-Jul-30 14:33N 51°21' E 003°46'9 9.3
2014-Jul-30 13:33N 51°25' E 003°33'1212.0
2014-Jul-30 12:33N 51°24' E 003°13'  

Dump ship's entire track history